sensor_id;sensor_type;location;lat;lon;timestamp;P1;durP1;ratioP1;P2;durP2;ratioP2
19867;SDS011;10096;51.112;6.776;2023-03-21T00:02:01;8.95;;;4.65;;
19867;SDS011;10096;51.112;6.776;2023-03-21T00:04:28;9.00;;;5.38;;
19867;SDS011;10096;51.112;6.776;2023-03-21T00:06:56;7.22;;;4.60;;
19867;SDS011;10096;51.112;6.776;2023-03-21T00:09:22;6.68;;;4.82;;
19867;SDS011;10096;51.112;6.776;2023-03-21T00:11:51;9.30;;;4.30;;
19867;SDS011;10096;51.112;6.776;2023-03-21T00:14:18;7.35;;;4.53;;
19867;SDS011;10096;51.112;6.776;2023-03-21T00:16:45;8.82;;;5.10;;
19867;SDS011;10096;51.112;6.776;2023-03-21T00:19:14;8.07;;;5.03;;
19867;SDS011;10096;51.112;6.776;2023-03-21T00:21:41;8.35;;;5.45;;
19867;SDS011;10096;51.112;6.776;2023-03-21T00:24:09;7.25;;;4.28;;
19867;SDS011;10096;51.112;6.776;2023-03-21T00:26:36;10.00;;;5.30;;
19867;SDS011;10096;51.112;6.776;2023-03-21T00:29:07;9.85;;;5.30;;
19867;SDS011;10096;51.112;6.776;2023-03-21T00:31:33;7.32;;;4.72;;
19867;SDS011;10096;51.112;6.776;2023-03-21T00:34:03;8.98;;;5.47;;
19867;SDS011;10096;51.112;6.776;2023-03-21T00:36:30;8.38;;;5.35;;
19867;SDS011;10096;51.112;6.776;2023-03-21T00:38:57;9.65;;;5.45;;
19867;SDS011;10096;51.112;6.776;2023-03-21T00:41:25;6.93;;;4.78;;
19867;SDS011;10096;51.112;6.776;2023-03-21T00:43:52;7.45;;;5.13;;
19867;SDS011;10096;51.112;6.776;2023-03-21T00:46:20;9.17;;;5.10;;
19867;SDS011;10096;51.112;6.776;2023-03-21T00:48:47;10.50;;;5.03;;
19867;SDS011;10096;51.112;6.776;2023-03-21T00:51:17;9.73;;;5.65;;
19867;SDS011;10096;51.112;6.776;2023-03-21T00:53:50;9.45;;;6.00;;
19867;SDS011;10096;51.112;6.776;2023-03-21T00:56:17;8.57;;;6.03;;
19867;SDS011;10096;51.112;6.776;2023-03-21T00:58:44;8.55;;;5.20;;
19867;SDS011;10096;51.112;6.776;2023-03-21T01:01:11;9.13;;;5.10;;
19867;SDS011;10096;51.112;6.776;2023-03-21T01:03:43;14.57;;;5.63;;
19867;SDS011;10096;51.112;6.776;2023-03-21T01:06:15;13.55;;;6.15;;
19867;SDS011;10096;51.112;6.776;2023-03-21T01:08:45;8.02;;;5.60;;
19867;SDS011;10096;51.112;6.776;2023-03-21T01:11:14;8.55;;;5.65;;
19867;SDS011;10096;51.112;6.776;2023-03-21T01:13:43;8.52;;;5.57;;
19867;SDS011;10096;51.112;6.776;2023-03-21T01:16:10;12.43;;;6.05;;
19867;SDS011;10096;51.112;6.776;2023-03-21T01:18:39;9.27;;;5.93;;
19867;SDS011;10096;51.112;6.776;2023-03-21T01:21:09;8.35;;;5.75;;
19867;SDS011;10096;51.112;6.776;2023-03-21T01:23:40;9.48;;;6.00;;
19867;SDS011;10096;51.112;6.776;2023-03-21T01:26:08;8.93;;;5.97;;
19867;SDS011;10096;51.112;6.776;2023-03-21T01:28:37;8.75;;;6.45;;
19867;SDS011;10096;51.112;6.776;2023-03-21T01:31:05;9.85;;;6.10;;
19867;SDS011;10096;51.112;6.776;2023-03-21T01:33:33;11.43;;;6.25;;
19867;SDS011;10096;51.112;6.776;2023-03-21T01:36:01;10.82;;;6.43;;
19867;SDS011;10096;51.112;6.776;2023-03-21T01:38:30;9.93;;;6.20;;
19867;SDS011;10096;51.112;6.776;2023-03-21T01:40:58;11.60;;;6.50;;
19867;SDS011;10096;51.112;6.776;2023-03-21T01:43:27;14.45;;;6.63;;
19867;SDS011;10096;51.112;6.776;2023-03-21T01:46:19;9.95;;;6.70;;
19867;SDS011;10096;51.112;6.776;2023-03-21T01:49:02;8.50;;;6.30;;
19867;SDS011;10096;51.112;6.776;2023-03-21T01:51:32;10.30;;;6.93;;
19867;SDS011;10096;51.112;6.776;2023-03-21T01:54:04;10.63;;;6.93;;
19867;SDS011;10096;51.112;6.776;2023-03-21T01:56:36;11.45;;;7.03;;
19867;SDS011;10096;51.112;6.776;2023-03-21T01:59:06;12.80;;;7.00;;
19867;SDS011;10096;51.112;6.776;2023-03-21T02:01:36;8.85;;;6.57;;
19867;SDS011;10096;51.112;6.776;2023-03-21T02:04:06;12.27;;;6.88;;
19867;SDS011;10096;51.112;6.776;2023-03-21T02:06:35;11.52;;;6.38;;
19867;SDS011;10096;51.112;6.776;2023-03-21T02:09:10;10.70;;;7.05;;
19867;SDS011;10096;51.112;6.776;2023-03-21T02:11:39;11.93;;;6.22;;
19867;SDS011;10096;51.112;6.776;2023-03-21T02:14:11;8.30;;;6.05;;
19867;SDS011;10096;51.112;6.776;2023-03-21T02:16:43;9.27;;;6.03;;
19867;SDS011;10096;51.112;6.776;2023-03-21T02:19:24;9.38;;;7.05;;
19867;SDS011;10096;51.112;6.776;2023-03-21T02:22:13;9.82;;;6.60;;
19867;SDS011;10096;51.112;6.776;2023-03-21T02:25:28;14.32;;;6.70;;
19867;SDS011;10096;51.112;6.776;2023-03-21T02:28:18;12.10;;;6.85;;
19867;SDS011;10096;51.112;6.776;2023-03-21T02:31:04;13.30;;;7.32;;
19867;SDS011;10096;51.112;6.776;2023-03-21T02:33:53;11.20;;;6.82;;
19867;SDS011;10096;51.112;6.776;2023-03-21T02:36:46;9.98;;;7.43;;
19867;SDS011;10096;51.112;6.776;2023-03-21T02:39:24;10.10;;;6.25;;
19867;SDS011;10096;51.112;6.776;2023-03-21T02:41:56;10.68;;;6.90;;
19867;SDS011;10096;51.112;6.776;2023-03-21T02:44:31;10.32;;;6.78;;
19867;SDS011;10096;51.112;6.776;2023-03-21T02:47:06;12.23;;;6.38;;
19867;SDS011;10096;51.112;6.776;2023-03-21T02:49:39;10.32;;;7.13;;
19867;SDS011;10096;51.112;6.776;2023-03-21T02:52:14;9.82;;;6.43;;
19867;SDS011;10096;51.112;6.776;2023-03-21T02:54:45;11.80;;;6.70;;
19867;SDS011;10096;51.112;6.776;2023-03-21T02:57:16;9.32;;;6.30;;
19867;SDS011;10096;51.112;6.776;2023-03-21T02:59:44;11.95;;;7.22;;
19867;SDS011;10096;51.112;6.776;2023-03-21T03:02:12;12.38;;;6.72;;
19867;SDS011;10096;51.112;6.776;2023-03-21T03:04:40;9.75;;;6.47;;
19867;SDS011;10096;51.112;6.776;2023-03-21T03:07:10;11.30;;;7.13;;
19867;SDS011;10096;51.112;6.776;2023-03-21T03:09:49;8.55;;;6.70;;
19867;SDS011;10096;51.112;6.776;2023-03-21T03:12:41;11.32;;;6.75;;
19867;SDS011;10096;51.112;6.776;2023-03-21T03:15:18;10.90;;;6.43;;
19867;SDS011;10096;51.112;6.776;2023-03-21T03:17:55;9.70;;;6.38;;
19867;SDS011;10096;51.112;6.776;2023-03-21T03:20:31;9.98;;;7.18;;
19867;SDS011;10096;51.112;6.776;2023-03-21T03:23:06;14.85;;;7.25;;
19867;SDS011;10096;51.112;6.776;2023-03-21T03:25:46;11.18;;;6.70;;
19867;SDS011;10096;51.112;6.776;2023-03-21T03:28:18;11.77;;;7.15;;
19867;SDS011;10096;51.112;6.776;2023-03-21T03:30:48;12.10;;;7.78;;
19867;SDS011;10096;51.112;6.776;2023-03-21T03:33:17;12.65;;;6.55;;
19867;SDS011;10096;51.112;6.776;2023-03-21T03:35:48;11.60;;;7.25;;
19867;SDS011;10096;51.112;6.776;2023-03-21T03:38:18;13.93;;;7.15;;
19867;SDS011;10096;51.112;6.776;2023-03-21T03:40:48;10.40;;;6.63;;
19867;SDS011;10096;51.112;6.776;2023-03-21T03:43:20;11.32;;;7.00;;
19867;SDS011;10096;51.112;6.776;2023-03-21T03:45:52;9.60;;;6.82;;
19867;SDS011;10096;51.112;6.776;2023-03-21T03:48:24;9.68;;;6.70;;
19867;SDS011;10096;51.112;6.776;2023-03-21T03:50:59;13.50;;;6.97;;
19867;SDS011;10096;51.112;6.776;2023-03-21T03:53:33;13.25;;;7.80;;
19867;SDS011;10096;51.112;6.776;2023-03-21T03:56:04;10.00;;;7.00;;
19867;SDS011;10096;51.112;6.776;2023-03-21T03:58:36;14.27;;;8.35;;
19867;SDS011;10096;51.112;6.776;2023-03-21T04:01:05;17.65;;;8.15;;
19867;SDS011;10096;51.112;6.776;2023-03-21T04:03:33;11.13;;;6.82;;
19867;SDS011;10096;51.112;6.776;2023-03-21T04:06:02;13.77;;;7.57;;
19867;SDS011;10096;51.112;6.776;2023-03-21T04:08:30;11.27;;;7.97;;
19867;SDS011;10096;51.112;6.776;2023-03-21T04:10:58;13.45;;;7.82;;
19867;SDS011;10096;51.112;6.776;2023-03-21T04:13:27;8.63;;;7.32;;
19867;SDS011;10096;51.112;6.776;2023-03-21T04:15:54;13.63;;;8.40;;
19867;SDS011;10096;51.112;6.776;2023-03-21T04:18:21;11.07;;;7.38;;
19867;SDS011;10096;51.112;6.776;2023-03-21T04:20:48;12.30;;;7.78;;
19867;SDS011;10096;51.112;6.776;2023-03-21T04:23:16;10.85;;;7.95;;
19867;SDS011;10096;51.112;6.776;2023-03-21T04:25:44;13.15;;;7.07;;
19867;SDS011;10096;51.112;6.776;2023-03-21T04:28:12;13.20;;;8.63;;
19867;SDS011;10096;51.112;6.776;2023-03-21T04:30:39;12.23;;;7.82;;
19867;SDS011;10096;51.112;6.776;2023-03-21T04:33:06;11.18;;;7.82;;
19867;SDS011;10096;51.112;6.776;2023-03-21T04:35:33;11.77;;;7.45;;
19867;SDS011;10096;51.112;6.776;2023-03-21T04:38:02;14.20;;;7.45;;
19867;SDS011;10096;51.112;6.776;2023-03-21T04:40:29;9.50;;;7.82;;
19867;SDS011;10096;51.112;6.776;2023-03-21T04:42:56;11.68;;;7.43;;
19867;SDS011;10096;51.112;6.776;2023-03-21T04:45:26;8.73;;;7.03;;
19867;SDS011;10096;51.112;6.776;2023-03-21T04:47:53;11.82;;;6.75;;
19867;SDS011;10096;51.112;6.776;2023-03-21T04:50:22;12.73;;;8.00;;
19867;SDS011;10096;51.112;6.776;2023-03-21T04:52:49;14.98;;;8.20;;
19867;SDS011;10096;51.112;6.776;2023-03-21T04:55:16;12.80;;;7.38;;
19867;SDS011;10096;51.112;6.776;2023-03-21T04:57:45;11.98;;;7.82;;
19867;SDS011;10096;51.112;6.776;2023-03-21T05:00:13;14.88;;;7.75;;
19867;SDS011;10096;51.112;6.776;2023-03-21T05:02:42;12.52;;;7.50;;
19867;SDS011;10096;51.112;6.776;2023-03-21T05:05:10;14.52;;;8.23;;
19867;SDS011;10096;51.112;6.776;2023-03-21T05:07:38;12.90;;;7.60;;
19867;SDS011;10096;51.112;6.776;2023-03-21T05:10:06;13.38;;;7.80;;
19867;SDS011;10096;51.112;6.776;2023-03-21T05:12:35;12.23;;;8.27;;
19867;SDS011;10096;51.112;6.776;2023-03-21T05:15:03;10.23;;;7.07;;
19867;SDS011;10096;51.112;6.776;2023-03-21T05:17:30;13.15;;;8.02;;
19867;SDS011;10096;51.112;6.776;2023-03-21T05:20:01;12.30;;;7.10;;
19867;SDS011;10096;51.112;6.776;2023-03-21T05:22:30;10.63;;;7.38;;
19867;SDS011;10096;51.112;6.776;2023-03-21T05:25:05;12.13;;;8.32;;
19867;SDS011;10096;51.112;6.776;2023-03-21T05:27:33;11.23;;;7.57;;
19867;SDS011;10096;51.112;6.776;2023-03-21T05:30:02;16.05;;;8.40;;
19867;SDS011;10096;51.112;6.776;2023-03-21T05:32:33;14.25;;;7.75;;
19867;SDS011;10096;51.112;6.776;2023-03-21T05:35:01;11.30;;;6.90;;
19867;SDS011;10096;51.112;6.776;2023-03-21T05:37:31;14.10;;;7.88;;
19867;SDS011;10096;51.112;6.776;2023-03-21T05:39:57;15.13;;;11.15;;
19867;SDS011;10096;51.112;6.776;2023-03-21T05:42:24;14.95;;;8.10;;
19867;SDS011;10096;51.112;6.776;2023-03-21T05:44:51;12.75;;;8.50;;
19867;SDS011;10096;51.112;6.776;2023-03-21T05:47:18;14.07;;;7.95;;
19867;SDS011;10096;51.112;6.776;2023-03-21T05:49:45;12.30;;;7.75;;
19867;SDS011;10096;51.112;6.776;2023-03-21T05:52:15;12.02;;;7.35;;
19867;SDS011;10096;51.112;6.776;2023-03-21T05:54:42;11.25;;;7.60;;
19867;SDS011;10096;51.112;6.776;2023-03-21T05:57:10;11.95;;;7.80;;
19867;SDS011;10096;51.112;6.776;2023-03-21T05:59:38;12.70;;;7.72;;
19867;SDS011;10096;51.112;6.776;2023-03-21T06:02:05;14.18;;;7.63;;
19867;SDS011;10096;51.112;6.776;2023-03-21T06:04:32;9.23;;;7.90;;
19867;SDS011;10096;51.112;6.776;2023-03-21T06:06:59;15.17;;;7.80;;
19867;SDS011;10096;51.112;6.776;2023-03-21T06:09:28;14.75;;;7.93;;
19867;SDS011;10096;51.112;6.776;2023-03-21T06:11:55;10.32;;;7.45;;
19867;SDS011;10096;51.112;6.776;2023-03-21T06:14:23;11.93;;;7.80;;
19867;SDS011;10096;51.112;6.776;2023-03-21T06:16:50;16.17;;;7.85;;
19867;SDS011;10096;51.112;6.776;2023-03-21T06:19:18;15.75;;;7.53;;
19867;SDS011;10096;51.112;6.776;2023-03-21T06:21:48;14.35;;;7.30;;
19867;SDS011;10096;51.112;6.776;2023-03-21T06:24:15;12.70;;;7.93;;
19867;SDS011;10096;51.112;6.776;2023-03-21T06:26:44;11.70;;;7.60;;
19867;SDS011;10096;51.112;6.776;2023-03-21T06:29:12;9.55;;;6.82;;
19867;SDS011;10096;51.112;6.776;2023-03-21T06:31:39;11.55;;;7.25;;
19867;SDS011;10096;51.112;6.776;2023-03-21T06:34:06;13.25;;;7.35;;
19867;SDS011;10096;51.112;6.776;2023-03-21T06:36:34;14.07;;;8.18;;
19867;SDS011;10096;51.112;6.776;2023-03-21T06:39:04;12.45;;;7.50;;
19867;SDS011;10096;51.112;6.776;2023-03-21T06:42:18;12.95;;;7.28;;
19867;SDS011;10096;51.112;6.776;2023-03-21T06:44:46;9.88;;;6.68;;
19867;SDS011;10096;51.112;6.776;2023-03-21T06:47:13;12.20;;;6.15;;
19867;SDS011;10096;51.112;6.776;2023-03-21T06:49:42;14.68;;;7.15;;
19867;SDS011;10096;51.112;6.776;2023-03-21T06:52:09;10.40;;;7.25;;
19867;SDS011;10096;51.112;6.776;2023-03-21T06:54:36;14.98;;;8.23;;
19867;SDS011;10096;51.112;6.776;2023-03-21T06:57:04;10.07;;;7.05;;
19867;SDS011;10096;51.112;6.776;2023-03-21T06:59:33;10.65;;;6.93;;
19867;SDS011;10096;51.112;6.776;2023-03-21T07:02:01;12.05;;;7.35;;
19867;SDS011;10096;51.112;6.776;2023-03-21T07:04:31;11.98;;;7.10;;
19867;SDS011;10096;51.112;6.776;2023-03-21T07:06:59;10.77;;;7.43;;
19867;SDS011;10096;51.112;6.776;2023-03-21T07:09:26;12.00;;;7.40;;
19867;SDS011;10096;51.112;6.776;2023-03-21T07:11:53;11.68;;;7.43;;
19867;SDS011;10096;51.112;6.776;2023-03-21T07:14:20;13.18;;;7.90;;
19867;SDS011;10096;51.112;6.776;2023-03-21T07:16:49;16.15;;;9.60;;
19867;SDS011;10096;51.112;6.776;2023-03-21T07:19:16;18.92;;;9.70;;
19867;SDS011;10096;51.112;6.776;2023-03-21T07:21:43;11.43;;;7.38;;
19867;SDS011;10096;51.112;6.776;2023-03-21T07:24:10;18.25;;;11.25;;
19867;SDS011;10096;51.112;6.776;2023-03-21T07:26:37;15.05;;;8.52;;
19867;SDS011;10096;51.112;6.776;2023-03-21T07:29:07;14.43;;;7.95;;
19867;SDS011;10096;51.112;6.776;2023-03-21T07:31:35;11.98;;;8.00;;
19867;SDS011;10096;51.112;6.776;2023-03-21T07:34:06;14.30;;;8.95;;
19867;SDS011;10096;51.112;6.776;2023-03-21T07:36:33;9.07;;;7.07;;
19867;SDS011;10096;51.112;6.776;2023-03-21T07:39:02;12.63;;;8.65;;
19867;SDS011;10096;51.112;6.776;2023-03-21T07:41:30;14.27;;;8.40;;
19867;SDS011;10096;51.112;6.776;2023-03-21T07:43:57;14.80;;;8.43;;
19867;SDS011;10096;51.112;6.776;2023-03-21T07:46:24;15.70;;;8.60;;
19867;SDS011;10096;51.112;6.776;2023-03-21T07:48:51;14.95;;;9.32;;
19867;SDS011;10096;51.112;6.776;2023-03-21T07:51:20;9.32;;;7.43;;
19867;SDS011;10096;51.112;6.776;2023-03-21T07:53:46;11.57;;;8.32;;
19867;SDS011;10096;51.112;6.776;2023-03-21T07:56:14;20.92;;;8.73;;
19867;SDS011;10096;51.112;6.776;2023-03-21T07:58:41;11.63;;;7.90;;
19867;SDS011;10096;51.112;6.776;2023-03-21T08:01:08;12.20;;;7.65;;
19867;SDS011;10096;51.112;6.776;2023-03-21T08:03:35;16.98;;;8.98;;
19867;SDS011;10096;51.112;6.776;2023-03-21T08:06:03;11.75;;;7.88;;
19867;SDS011;10096;51.112;6.776;2023-03-21T08:08:34;14.25;;;8.82;;
19867;SDS011;10096;51.112;6.776;2023-03-21T08:11:02;23.13;;;13.83;;
19867;SDS011;10096;51.112;6.776;2023-03-21T08:13:30;15.20;;;8.63;;
19867;SDS011;10096;51.112;6.776;2023-03-21T08:15:57;14.80;;;8.60;;
19867;SDS011;10096;51.112;6.776;2023-03-21T08:18:24;12.32;;;8.38;;
19867;SDS011;10096;51.112;6.776;2023-03-21T08:20:51;11.95;;;8.50;;
19867;SDS011;10096;51.112;6.776;2023-03-21T08:23:18;13.60;;;8.60;;
19867;SDS011;10096;51.112;6.776;2023-03-21T08:25:51;12.63;;;7.97;;
19867;SDS011;10096;51.112;6.776;2023-03-21T08:28:22;17.27;;;9.03;;
19867;SDS011;10096;51.112;6.776;2023-03-21T08:30:49;18.70;;;9.68;;
19867;SDS011;10096;51.112;6.776;2023-03-21T08:33:16;16.58;;;8.65;;
19867;SDS011;10096;51.112;6.776;2023-03-21T08:35:44;11.75;;;8.45;;
19867;SDS011;10096;51.112;6.776;2023-03-21T08:38:11;13.52;;;9.68;;
19867;SDS011;10096;51.112;6.776;2023-03-21T08:40:38;15.43;;;9.73;;
19867;SDS011;10096;51.112;6.776;2023-03-21T08:43:07;15.43;;;9.48;;
19867;SDS011;10096;51.112;6.776;2023-03-21T08:45:34;13.55;;;9.80;;
19867;SDS011;10096;51.112;6.776;2023-03-21T08:48:01;16.75;;;10.10;;
19867;SDS011;10096;51.112;6.776;2023-03-21T08:50:28;15.10;;;9.52;;
19867;SDS011;10096;51.112;6.776;2023-03-21T08:52:57;14.15;;;9.23;;
19867;SDS011;10096;51.112;6.776;2023-03-21T08:55:24;12.43;;;9.20;;
19867;SDS011;10096;51.112;6.776;2023-03-21T08:57:51;15.13;;;9.13;;
19867;SDS011;10096;51.112;6.776;2023-03-21T09:00:20;16.60;;;11.65;;
19867;SDS011;10096;51.112;6.776;2023-03-21T09:02:47;15.20;;;9.07;;
19867;SDS011;10096;51.112;6.776;2023-03-21T09:05:17;16.20;;;9.60;;
19867;SDS011;10096;51.112;6.776;2023-03-21T09:07:45;16.42;;;10.50;;
19867;SDS011;10096;51.112;6.776;2023-03-21T09:10:14;19.73;;;9.48;;
19867;SDS011;10096;51.112;6.776;2023-03-21T09:12:42;12.68;;;9.27;;
19867;SDS011;10096;51.112;6.776;2023-03-21T09:15:10;12.45;;;9.05;;
19867;SDS011;10096;51.112;6.776;2023-03-21T09:17:39;14.77;;;9.60;;
19867;SDS011;10096;51.112;6.776;2023-03-21T09:20:08;12.57;;;8.73;;
19867;SDS011;10096;51.112;6.776;2023-03-21T09:22:43;11.52;;;9.30;;
19867;SDS011;10096;51.112;6.776;2023-03-21T09:25:10;12.70;;;8.90;;
19867;SDS011;10096;51.112;6.776;2023-03-21T09:27:38;13.27;;;9.20;;
19867;SDS011;10096;51.112;6.776;2023-03-21T09:30:05;14.30;;;9.02;;
19867;SDS011;10096;51.112;6.776;2023-03-21T09:32:34;13.82;;;9.13;;
19867;SDS011;10096;51.112;6.776;2023-03-21T09:35:03;16.20;;;8.82;;
19867;SDS011;10096;51.112;6.776;2023-03-21T09:37:32;12.23;;;8.35;;
19867;SDS011;10096;51.112;6.776;2023-03-21T09:40:06;13.15;;;9.23;;
19867;SDS011;10096;51.112;6.776;2023-03-21T09:42:41;13.50;;;8.55;;
19867;SDS011;10096;51.112;6.776;2023-03-21T09:45:19;14.57;;;8.55;;
19867;SDS011;10096;51.112;6.776;2023-03-21T09:47:52;12.82;;;7.00;;
19867;SDS011;10096;51.112;6.776;2023-03-21T09:50:23;12.20;;;8.63;;
19867;SDS011;10096;51.112;6.776;2023-03-21T09:52:56;12.73;;;8.88;;
19867;SDS011;10096;51.112;6.776;2023-03-21T09:55:25;11.75;;;8.75;;
19867;SDS011;10096;51.112;6.776;2023-03-21T09:57:57;11.57;;;8.38;;
19867;SDS011;10096;51.112;6.776;2023-03-21T10:00:32;9.80;;;7.95;;
19867;SDS011;10096;51.112;6.776;2023-03-21T10:03:04;11.25;;;7.60;;
19867;SDS011;10096;51.112;6.776;2023-03-21T10:05:41;10.35;;;7.45;;
19867;SDS011;10096;51.112;6.776;2023-03-21T10:08:11;11.60;;;8.05;;
19867;SDS011;10096;51.112;6.776;2023-03-21T10:10:44;14.55;;;8.45;;
19867;SDS011;10096;51.112;6.776;2023-03-21T10:13:16;11.93;;;8.98;;
19867;SDS011;10096;51.112;6.776;2023-03-21T10:15:46;14.32;;;7.90;;
19867;SDS011;10096;51.112;6.776;2023-03-21T10:18:16;10.23;;;7.28;;
19867;SDS011;10096;51.112;6.776;2023-03-21T10:20:49;12.07;;;8.60;;
19867;SDS011;10096;51.112;6.776;2023-03-21T10:23:18;13.68;;;8.18;;
19867;SDS011;10096;51.112;6.776;2023-03-21T10:25:50;10.73;;;7.63;;
19867;SDS011;10096;51.112;6.776;2023-03-21T10:28:24;12.88;;;7.63;;
19867;SDS011;10096;51.112;6.776;2023-03-21T10:30:53;10.90;;;7.35;;
19867;SDS011;10096;51.112;6.776;2023-03-21T10:33:22;10.15;;;7.35;;
19867;SDS011;10096;51.112;6.776;2023-03-21T10:35:53;11.40;;;7.47;;
19867;SDS011;10096;51.112;6.776;2023-03-21T10:38:24;9.35;;;7.68;;
19867;SDS011;10096;51.112;6.776;2023-03-21T10:40:51;10.02;;;7.65;;
19867;SDS011;10096;51.112;6.776;2023-03-21T10:43:29;12.02;;;7.93;;
19867;SDS011;10096;51.112;6.776;2023-03-21T10:46:04;13.82;;;9.10;;
19867;SDS011;10096;51.112;6.776;2023-03-21T10:48:34;12.88;;;8.73;;
19867;SDS011;10096;51.112;6.776;2023-03-21T10:51:07;14.10;;;8.73;;
19867;SDS011;10096;51.112;6.776;2023-03-21T10:53:37;10.73;;;8.13;;
19867;SDS011;10096;51.112;6.776;2023-03-21T10:56:07;9.18;;;7.28;;
19867;SDS011;10096;51.112;6.776;2023-03-21T10:58:38;10.98;;;7.22;;
19867;SDS011;10096;51.112;6.776;2023-03-21T11:01:10;8.90;;;6.68;;
19867;SDS011;10096;51.112;6.776;2023-03-21T11:03:41;12.15;;;6.43;;
19867;SDS011;10096;51.112;6.776;2023-03-21T11:06:13;9.48;;;6.70;;
19867;SDS011;10096;51.112;6.776;2023-03-21T11:08:44;10.52;;;6.38;;
19867;SDS011;10096;51.112;6.776;2023-03-21T11:11:21;11.98;;;7.70;;
19867;SDS011;10096;51.112;6.776;2023-03-21T11:14:00;11.15;;;6.53;;
19867;SDS011;10096;51.112;6.776;2023-03-21T11:16:34;8.05;;;6.70;;
19867;SDS011;10096;51.112;6.776;2023-03-21T11:19:10;9.52;;;7.05;;
19867;SDS011;10096;51.112;6.776;2023-03-21T11:21:42;9.15;;;6.53;;
19867;SDS011;10096;51.112;6.776;2023-03-21T11:24:11;10.18;;;6.18;;
19867;SDS011;10096;51.112;6.776;2023-03-21T11:26:40;8.23;;;6.43;;
19867;SDS011;10096;51.112;6.776;2023-03-21T11:31:56;8.93;;;6.72;;
19867;SDS011;10096;51.112;6.776;2023-03-21T11:34:27;9.20;;;7.47;;
19867;SDS011;10096;51.112;6.776;2023-03-21T11:37:00;8.85;;;7.07;;
19867;SDS011;10096;51.112;6.776;2023-03-21T11:39:29;12.32;;;8.10;;
19867;SDS011;10096;51.112;6.776;2023-03-21T11:41:58;10.35;;;7.53;;
19867;SDS011;10096;51.112;6.776;2023-03-21T11:44:26;10.60;;;7.78;;
19867;SDS011;10096;51.112;6.776;2023-03-21T11:46:55;11.25;;;8.05;;
19867;SDS011;10096;51.112;6.776;2023-03-21T11:49:22;13.18;;;8.00;;
19867;SDS011;10096;51.112;6.776;2023-03-21T11:51:53;11.80;;;7.15;;
19867;SDS011;10096;51.112;6.776;2023-03-21T11:54:30;12.20;;;7.80;;
19867;SDS011;10096;51.112;6.776;2023-03-21T11:57:05;10.20;;;7.85;;
19867;SDS011;10096;51.112;6.776;2023-03-21T11:59:44;8.60;;;6.85;;
19867;SDS011;10096;51.112;6.776;2023-03-21T12:02:21;12.88;;;8.13;;
19867;SDS011;10096;51.112;6.776;2023-03-21T12:04:56;10.85;;;7.72;;
19867;SDS011;10096;51.112;6.776;2023-03-21T12:07:32;8.98;;;7.85;;
19867;SDS011;10096;51.112;6.776;2023-03-21T12:10:24;12.10;;;7.55;;
19867;SDS011;10096;51.112;6.776;2023-03-21T12:13:00;12.80;;;8.30;;
19867;SDS011;10096;51.112;6.776;2023-03-21T12:15:34;12.02;;;8.13;;
19867;SDS011;10096;51.112;6.776;2023-03-21T12:21:16;13.20;;;8.23;;
19867;SDS011;10096;51.112;6.776;2023-03-21T12:23:52;8.82;;;7.00;;
19867;SDS011;10096;51.112;6.776;2023-03-21T12:26:28;10.48;;;7.18;;
19867;SDS011;10096;51.112;6.776;2023-03-21T12:29:07;10.85;;;7.72;;
19867;SDS011;10096;51.112;6.776;2023-03-21T12:31:49;8.60;;;7.35;;
19867;SDS011;10096;51.112;6.776;2023-03-21T12:34:30;10.40;;;7.15;;
19867;SDS011;10096;51.112;6.776;2023-03-21T12:37:12;10.68;;;7.45;;
19867;SDS011;10096;51.112;6.776;2023-03-21T12:39:49;8.95;;;6.88;;
19867;SDS011;10096;51.112;6.776;2023-03-21T12:42:22;9.57;;;7.15;;
19867;SDS011;10096;51.112;6.776;2023-03-21T12:45:20;7.63;;;6.22;;
19867;SDS011;10096;51.112;6.776;2023-03-21T12:47:51;7.93;;;7.13;;
19867;SDS011;10096;51.112;6.776;2023-03-21T12:50:23;9.98;;;7.70;;
19867;SDS011;10096;51.112;6.776;2023-03-21T12:52:53;8.57;;;6.82;;
19867;SDS011;10096;51.112;6.776;2023-03-21T12:55:27;10.40;;;6.75;;
19867;SDS011;10096;51.112;6.776;2023-03-21T12:57:57;8.38;;;6.35;;
19867;SDS011;10096;51.112;6.776;2023-03-21T13:00:31;11.13;;;7.22;;
19867;SDS011;10096;51.112;6.776;2023-03-21T13:03:03;8.15;;;6.22;;
19867;SDS011;10096;51.112;6.776;2023-03-21T13:05:36;9.70;;;7.07;;
19867;SDS011;10096;51.112;6.776;2023-03-21T13:08:08;9.20;;;6.45;;
19867;SDS011;10096;51.112;6.776;2023-03-21T13:10:42;8.52;;;6.18;;
19867;SDS011;10096;51.112;6.776;2023-03-21T13:13:12;8.90;;;5.88;;
19867;SDS011;10096;51.112;6.776;2023-03-21T13:15:49;10.35;;;6.25;;
19867;SDS011;10096;51.112;6.776;2023-03-21T13:18:32;6.82;;;6.20;;
19867;SDS011;10096;51.112;6.776;2023-03-21T13:21:07;9.25;;;7.75;;
19867;SDS011;10096;51.112;6.776;2023-03-21T13:23:44;9.18;;;6.40;;
19867;SDS011;10096;51.112;6.776;2023-03-21T13:26:31;8.18;;;6.82;;
19867;SDS011;10096;51.112;6.776;2023-03-21T13:29:11;7.97;;;5.82;;
19867;SDS011;10096;51.112;6.776;2023-03-21T13:31:42;7.78;;;6.22;;
19867;SDS011;10096;51.112;6.776;2023-03-21T13:34:10;7.95;;;6.30;;
19867;SDS011;10096;51.112;6.776;2023-03-21T13:36:39;7.30;;;6.47;;
19867;SDS011;10096;51.112;6.776;2023-03-21T13:39:12;7.90;;;6.22;;
19867;SDS011;10096;51.112;6.776;2023-03-21T13:41:45;7.30;;;5.97;;
19867;SDS011;10096;51.112;6.776;2023-03-21T13:44:24;8.25;;;5.95;;
19867;SDS011;10096;51.112;6.776;2023-03-21T13:46:58;9.55;;;6.50;;
19867;SDS011;10096;51.112;6.776;2023-03-21T13:49:29;11.90;;;7.70;;
19867;SDS011;10096;51.112;6.776;2023-03-21T13:51:58;6.60;;;5.90;;
19867;SDS011;10096;51.112;6.776;2023-03-21T13:54:41;8.45;;;6.10;;
19867;SDS011;10096;51.112;6.776;2023-03-21T13:57:21;8.52;;;6.35;;
19867;SDS011;10096;51.112;6.776;2023-03-21T14:00:14;6.75;;;6.10;;
19867;SDS011;10096;51.112;6.776;2023-03-21T14:02:54;7.10;;;5.55;;
19867;SDS011;10096;51.112;6.776;2023-03-21T14:05:24;8.35;;;6.15;;
19867;SDS011;10096;51.112;6.776;2023-03-21T14:07:52;6.88;;;5.78;;
19867;SDS011;10096;51.112;6.776;2023-03-21T14:10:24;9.50;;;6.32;;
19867;SDS011;10096;51.112;6.776;2023-03-21T14:12:57;7.15;;;5.72;;
19867;SDS011;10096;51.112;6.776;2023-03-21T14:15:26;8.10;;;5.78;;
19867;SDS011;10096;51.112;6.776;2023-03-21T14:17:59;7.30;;;6.22;;
19867;SDS011;10096;51.112;6.776;2023-03-21T14:20:28;6.88;;;6.28;;
19867;SDS011;10096;51.112;6.776;2023-03-21T14:22:58;6.72;;;6.07;;
19867;SDS011;10096;51.112;6.776;2023-03-21T14:25:31;6.93;;;5.95;;
19867;SDS011;10096;51.112;6.776;2023-03-21T14:28:02;8.07;;;6.10;;
19867;SDS011;10096;51.112;6.776;2023-03-21T14:30:32;11.00;;;6.35;;
19867;SDS011;10096;51.112;6.776;2023-03-21T14:33:03;7.90;;;6.22;;
19867;SDS011;10096;51.112;6.776;2023-03-21T14:35:37;10.15;;;6.45;;
19867;SDS011;10096;51.112;6.776;2023-03-21T14:38:07;7.68;;;6.85;;
19867;SDS011;10096;51.112;6.776;2023-03-21T14:40:45;6.75;;;6.07;;
19867;SDS011;10096;51.112;6.776;2023-03-21T14:43:14;10.50;;;6.35;;
19867;SDS011;10096;51.112;6.776;2023-03-21T14:45:45;7.97;;;6.32;;
19867;SDS011;10096;51.112;6.776;2023-03-21T14:48:13;6.93;;;6.22;;
19867;SDS011;10096;51.112;6.776;2023-03-21T14:50:43;6.70;;;6.00;;
19867;SDS011;10096;51.112;6.776;2023-03-21T14:53:13;7.65;;;5.90;;
19867;SDS011;10096;51.112;6.776;2023-03-21T14:55:44;7.90;;;6.60;;
19867;SDS011;10096;51.112;6.776;2023-03-21T14:58:17;7.18;;;5.53;;
19867;SDS011;10096;51.112;6.776;2023-03-21T15:00:46;6.80;;;5.32;;
19867;SDS011;10096;51.112;6.776;2023-03-21T15:03:15;8.95;;;6.13;;
19867;SDS011;10096;51.112;6.776;2023-03-21T15:05:43;6.65;;;5.68;;
19867;SDS011;10096;51.112;6.776;2023-03-21T15:08:13;7.50;;;6.25;;